createdAt,value
2022-10-22T00:01:03.908Z,5.55
2022-10-22T00:03:30.887Z,5.82
2022-10-22T00:05:57.524Z,5.80
2022-10-22T00:08:24.127Z,5.18
2022-10-22T00:10:50.751Z,5.43
2022-10-22T00:13:17.470Z,5.75
2022-10-22T00:15:44.111Z,5.55
2022-10-22T00:18:10.768Z,4.90
2022-10-22T00:20:37.344Z,5.57
2022-10-22T00:23:04.262Z,5.78
2022-10-22T00:25:31.327Z,5.63
2022-10-22T00:27:57.891Z,5.25
2022-10-22T00:30:24.472Z,5.93
2022-10-22T00:32:51.234Z,5.20
2022-10-22T00:35:18.076Z,5.90
2022-10-22T00:37:44.717Z,5.35
2022-10-22T00:40:12.379Z,5.85
2022-10-22T00:42:39.514Z,5.80
2022-10-22T00:45:14.629Z,5.82
2022-10-22T00:48:07.172Z,5.80
2022-10-22T00:50:39.938Z,5.63
2022-10-22T00:53:14.066Z,5.25
2022-10-22T00:55:43.559Z,5.57
2022-10-22T00:58:10.661Z,6.07
2022-10-22T01:00:37.402Z,6.28
2022-10-22T01:03:04.406Z,5.60
2022-10-22T01:05:38.740Z,6.10
2022-10-22T01:08:06.857Z,5.72
2022-10-22T01:10:57.780Z,6.15
2022-10-22T01:13:47.476Z,6.68
2022-10-22T01:16:47.707Z,6.22
2022-10-22T01:19:39.276Z,6.47
2022-10-22T01:22:29.081Z,6.88
2022-10-22T01:25:04.845Z,6.03
2022-10-22T01:27:51.709Z,7.00
2022-10-22T01:30:19.338Z,6.53
2022-10-22T01:32:58.345Z,6.47
2022-10-22T01:35:28.900Z,6.45
2022-10-22T01:38:02.060Z,5.75
2022-10-22T01:40:29.530Z,5.78
2022-10-22T01:42:57.514Z,5.68
2022-10-22T01:45:24.385Z,5.72
2022-10-22T01:48:05.003Z,5.53
2022-10-22T01:51:00.630Z,6.28
2022-10-22T01:53:48.567Z,5.95
2022-10-22T01:56:30.544Z,6.03
2022-10-22T01:59:28.008Z,5.25
2022-10-22T02:02:41.036Z,5.13
2022-10-22T02:05:14.344Z,5.25
2022-10-22T02:07:49.316Z,6.47
2022-10-22T02:10:18.280Z,5.22
2022-10-22T02:12:49.038Z,6.25
2022-10-22T02:15:19.322Z,4.65
2022-10-22T02:17:47.697Z,5.75
2022-10-22T02:20:22.693Z,6.13
2022-10-22T02:22:49.529Z,5.70
2022-10-22T02:25:17.085Z,6.13
2022-10-22T02:27:56.287Z,6.07
2022-10-22T02:30:23.314Z,5.53
2022-10-22T02:33:18.141Z,6.05
2022-10-22T02:35:45.240Z,6.00
2022-10-22T02:38:13.509Z,5.90
2022-10-22T02:40:40.170Z,5.95
2022-10-22T02:43:07.215Z,5.07
2022-10-22T02:45:34.701Z,5.93
2022-10-22T02:48:01.328Z,6.03
2022-10-22T02:50:27.891Z,5.50
2022-10-22T02:52:54.463Z,5.65
2022-10-22T02:55:21.635Z,5.78
2022-10-22T02:57:48.228Z,5.68
2022-10-22T03:00:15.573Z,5.43
2022-10-22T03:02:42.179Z,5.50
2022-10-22T03:05:09.248Z,5.70
2022-10-22T03:07:35.847Z,5.55
2022-10-22T03:10:02.596Z,5.90
2022-10-22T03:12:29.290Z,5.55
2022-10-22T03:14:55.852Z,5.68
2022-10-22T03:17:22.447Z,5.32
2022-10-22T03:19:49.012Z,5.00
2022-10-22T03:22:26.778Z,4.75
2022-10-22T03:24:58.255Z,5.30
2022-10-22T03:27:26.094Z,5.70
2022-10-22T03:29:52.908Z,5.82
2022-10-22T03:32:19.725Z,5.95
2022-10-22T03:34:46.336Z,4.93
2022-10-22T03:37:13.439Z,5.78
2022-10-22T03:39:40.239Z,5.80
2022-10-22T03:42:08.260Z,4.78
2022-10-22T03:44:37.626Z,6.00
2022-10-22T03:47:04.831Z,5.57
2022-10-22T03:49:31.392Z,5.30
2022-10-22T03:51:58.365Z,6.82
2022-10-22T03:54:25.048Z,5.50
2022-10-22T03:56:51.632Z,5.32
2022-10-22T03:59:18.280Z,6.18
2022-10-22T04:01:44.851Z,5.45
2022-10-22T04:04:11.420Z,5.65
2022-10-22T04:06:38.051Z,5.57
2022-10-22T04:09:04.742Z,5.65
2022-10-22T04:11:31.449Z,5.63
2022-10-22T04:13:58.006Z,5.85
2022-10-22T04:16:27.389Z,5.75
2022-10-22T04:18:57.419Z,5.10
2022-10-22T04:21:24.377Z,5.55
2022-10-22T04:23:52.961Z,5.75
2022-10-22T04:26:20.240Z,5.35
2022-10-22T04:28:48.219Z,5.93
2022-10-22T04:31:17.692Z,5.22
2022-10-22T04:33:44.640Z,5.22
2022-10-22T04:36:13.874Z,6.20
2022-10-22T04:38:41.808Z,5.88
2022-10-22T04:41:13.529Z,5.57
2022-10-22T04:43:40.477Z,4.90
2022-10-22T04:46:09.143Z,5.38
2022-10-22T04:48:36.924Z,5.20
2022-10-22T04:51:04.518Z,5.50
2022-10-22T04:53:31.208Z,5.32
2022-10-22T04:56:08.320Z,5.80
2022-10-22T04:58:35.118Z,5.43
2022-10-22T05:01:08.801Z,5.72
2022-10-22T05:03:35.412Z,6.00
2022-10-22T05:06:02.335Z,4.85
2022-10-22T05:08:28.976Z,5.45
2022-10-22T05:10:57.780Z,5.97
2022-10-22T05:13:24.344Z,5.65
2022-10-22T05:15:50.960Z,5.10
2022-10-22T05:18:19.050Z,5.45
2022-10-22T05:20:48.460Z,5.38
2022-10-22T05:23:15.229Z,4.78
2022-10-22T05:25:41.835Z,4.25
2022-10-22T05:28:08.625Z,5.22
2022-10-22T05:30:35.500Z,4.88
2022-10-22T05:33:02.103Z,4.88
2022-10-22T05:35:28.646Z,4.88
2022-10-22T05:40:30.402Z,4.43
2022-10-22T05:42:58.681Z,4.63
2022-10-22T05:45:25.245Z,4.68
2022-10-22T05:47:51.812Z,4.45
2022-10-22T05:50:18.433Z,4.07
2022-10-22T05:52:44.999Z,4.55
2022-10-22T05:55:11.593Z,4.50
2022-10-22T05:57:39.893Z,4.40
2022-10-22T06:00:07.478Z,4.07
2022-10-22T06:02:34.166Z,4.30
2022-10-22T06:05:00.842Z,4.00
2022-10-22T06:07:27.631Z,4.30
2022-10-22T06:09:54.574Z,4.35
2022-10-22T06:12:21.217Z,3.95
2022-10-22T06:14:47.763Z,4.22
2022-10-22T06:17:14.367Z,3.85
2022-10-22T06:19:40.933Z,4.95
2022-10-22T06:22:07.541Z,3.63
2022-10-22T06:24:34.200Z,4.50
2022-10-22T06:27:00.829Z,4.10
2022-10-22T06:29:27.484Z,5.07
2022-10-22T06:31:54.064Z,4.20
2022-10-22T06:34:20.692Z,4.53
2022-10-22T06:36:47.843Z,4.50
2022-10-22T06:39:16.832Z,4.47
2022-10-22T06:41:43.494Z,4.70
2022-10-22T06:44:15.638Z,4.15
2022-10-22T06:46:43.606Z,3.40
2022-10-22T06:49:14.573Z,4.25
2022-10-22T06:51:41.884Z,3.80
2022-10-22T06:54:08.976Z,4.00
2022-10-22T06:56:35.759Z,3.65
2022-10-22T06:59:02.849Z,4.53
2022-10-22T07:01:32.522Z,4.10
2022-10-22T07:03:59.276Z,4.68
2022-10-22T07:06:27.644Z,4.25
2022-10-22T07:08:55.782Z,4.68
2022-10-22T07:11:25.702Z,3.70
2022-10-22T07:13:54.794Z,4.20
2022-10-22T07:16:22.728Z,3.83
2022-10-22T07:18:49.707Z,4.03
2022-10-22T07:21:18.914Z,3.75
2022-10-22T07:23:46.286Z,3.40
2022-10-22T07:26:15.428Z,3.08
2022-10-22T07:28:42.792Z,3.15
2022-10-22T07:31:11.717Z,4.50
2022-10-22T07:33:38.948Z,3.70
2022-10-22T07:36:09.079Z,3.63
2022-10-22T07:38:36.342Z,6.35
2022-10-22T07:41:03.884Z,3.78
2022-10-22T07:43:30.629Z,4.03
2022-10-22T07:45:57.233Z,4.25
2022-10-22T07:48:24.322Z,3.55
2022-10-22T07:50:51.766Z,4.38
2022-10-22T07:53:18.697Z,2.90
2022-10-22T07:55:48.979Z,3.78
2022-10-22T07:58:15.998Z,4.57
2022-10-22T08:00:42.643Z,2.90
2022-10-22T08:03:11.677Z,2.92
2022-10-22T08:05:39.270Z,4.10
2022-10-22T08:08:07.033Z,2.60
2022-10-22T08:10:34.835Z,1.40
2022-10-22T08:13:01.565Z,3.17
2022-10-22T08:15:28.221Z,2.03
2022-10-22T08:17:54.848Z,2.58
2022-10-22T08:20:21.823Z,2.33
2022-10-22T08:22:48.522Z,2.22
2022-10-22T08:25:15.860Z,2.10
2022-10-22T08:27:42.839Z,1.67
2022-10-22T08:30:10.455Z,2.35
2022-10-22T08:32:37.108Z,2.80
2022-10-22T08:35:04.009Z,1.77
2022-10-22T08:37:30.596Z,2.28
2022-10-22T08:39:57.160Z,1.52
2022-10-22T08:42:55.105Z,2.10
2022-10-22T08:45:29.640Z,2.22
2022-10-22T08:48:23.928Z,2.00
2022-10-22T08:50:54.455Z,2.65
2022-10-22T08:53:44.538Z,3.10
2022-10-22T08:56:11.245Z,2.30
2022-10-22T08:58:47.715Z,3.00
2022-10-22T09:01:19.943Z,2.00
2022-10-22T09:03:59.204Z,1.90
2022-10-22T09:06:28.332Z,2.72
2022-10-22T09:08:57.483Z,2.35
2022-10-22T09:11:34.718Z,2.22
2022-10-22T09:14:02.663Z,1.85
2022-10-22T09:16:48.054Z,1.48
2022-10-22T09:19:26.609Z,1.98
2022-10-22T09:22:08.874Z,3.17
2022-10-22T09:24:52.428Z,2.47
2022-10-22T09:27:27.803Z,2.13
2022-10-22T09:29:54.560Z,1.70
2022-10-22T09:32:21.181Z,2.30
2022-10-22T09:34:48.980Z,2.80
2022-10-22T09:37:18.756Z,3.05
2022-10-22T09:39:48.053Z,3.47
2022-10-22T09:42:17.276Z,4.47
2022-10-22T09:44:47.739Z,1.40
2022-10-22T09:47:43.529Z,2.65
2022-10-22T09:50:42.826Z,1.75
2022-10-22T09:53:19.125Z,1.67
2022-10-22T09:56:00.831Z,2.60
2022-10-22T09:58:28.319Z,2.22
2022-10-22T10:00:58.260Z,2.47
2022-10-22T10:03:31.221Z,2.40
2022-10-22T10:06:03.006Z,2.53
2022-10-22T10:11:15.184Z,2.33
2022-10-22T10:13:48.049Z,2.63
2022-10-22T10:16:43.293Z,1.92
2022-10-22T10:19:51.145Z,1.80
2022-10-22T10:22:36.206Z,2.22
2022-10-22T10:27:43.023Z,1.90
2022-10-22T10:30:19.047Z,2.25
2022-10-22T10:32:57.377Z,1.63
2022-10-22T10:35:47.784Z,2.47
2022-10-22T10:38:33.413Z,2.53
2022-10-22T10:41:18.651Z,1.70
2022-10-22T10:43:55.669Z,2.08
2022-10-22T10:46:34.831Z,1.20
2022-10-22T10:49:11.031Z,1.65
2022-10-22T10:52:01.407Z,2.50
2022-10-22T10:54:49.190Z,1.27
2022-10-22T10:57:40.908Z,2.53
2022-10-22T11:00:14.868Z,1.50
2022-10-22T11:03:16.029Z,2.60
2022-10-22T11:05:53.229Z,2.60
2022-10-22T11:08:28.516Z,1.52
2022-10-22T11:10:56.891Z,2.75
2022-10-22T11:13:29.763Z,3.03
2022-10-22T11:16:16.155Z,3.50
2022-10-22T11:18:51.644Z,2.72
2022-10-22T11:21:42.115Z,4.45
2022-10-22T11:24:27.539Z,3.05
2022-10-22T11:27:06.505Z,3.58
2022-10-22T11:29:47.924Z,2.60
2022-10-22T11:32:20.772Z,3.20
2022-10-22T11:34:51.773Z,3.30
2022-10-22T11:37:19.211Z,3.47
2022-10-22T11:39:55.267Z,2.70
2022-10-22T11:42:32.036Z,2.85
2022-10-22T11:45:03.826Z,3.53
2022-10-22T11:47:35.624Z,3.45
2022-10-22T11:50:44.165Z,2.88
2022-10-22T11:53:13.845Z,3.67
2022-10-22T11:55:46.086Z,2.67
2022-10-22T11:58:28.329Z,3.53
2022-10-22T12:01:18.248Z,4.57
2022-10-22T12:04:04.812Z,4.47
2022-10-22T12:06:53.817Z,3.70
2022-10-22T12:09:23.656Z,3.00
2022-10-22T12:11:51.227Z,3.15
2022-10-22T12:14:29.998Z,2.90
2022-10-22T12:17:07.301Z,2.38
2022-10-22T12:19:41.619Z,3.97
2022-10-22T12:22:22.081Z,2.53
2022-10-22T12:24:51.757Z,3.00
2022-10-22T12:27:35.809Z,3.35
2022-10-22T12:30:16.646Z,2.55
2022-10-22T12:32:43.929Z,1.92
2022-10-22T12:35:20.831Z,3.40
2022-10-22T12:38:13.731Z,3.00
2022-10-22T12:40:45.814Z,2.03
2022-10-22T12:45:45.839Z,2.33
2022-10-22T12:48:38.745Z,2.50
2022-10-22T12:51:09.687Z,2.42
2022-10-22T12:53:39.444Z,2.28
2022-10-22T12:56:11.636Z,3.15
2022-10-22T12:58:45.498Z,3.97
2022-10-22T13:01:14.199Z,2.20
2022-10-22T13:03:46.633Z,2.35
2022-10-22T13:06:19.371Z,2.35
2022-10-22T13:09:08.113Z,3.50
2022-10-22T13:11:48.481Z,2.63
2022-10-22T13:14:37.457Z,2.38
2022-10-22T13:17:24.065Z,3.00
2022-10-22T13:20:05.407Z,3.65
2022-10-22T13:22:37.479Z,2.92
2022-10-22T13:25:16.070Z,3.80
2022-10-22T13:27:47.385Z,3.67
2022-10-22T13:30:24.527Z,2.35
2022-10-22T13:32:57.301Z,1.98
2022-10-22T13:35:27.267Z,2.55
2022-10-22T13:37:54.257Z,2.47
2022-10-22T13:40:21.340Z,2.55
2022-10-22T13:42:48.123Z,2.47
2022-10-22T13:45:15.404Z,2.60
2022-10-22T13:47:45.004Z,2.78
2022-10-22T13:50:15.189Z,2.42
2022-10-22T13:52:46.835Z,2.60
2022-10-22T13:55:29.005Z,2.40
2022-10-22T13:58:00.467Z,2.42
2022-10-22T14:00:27.386Z,1.90
2022-10-22T14:02:58.728Z,2.10
2022-10-22T14:05:25.624Z,2.00
2022-10-22T14:07:52.939Z,2.80
2022-10-22T14:10:22.307Z,2.40
2022-10-22T14:12:52.576Z,2.30
2022-10-22T14:15:23.924Z,1.92
2022-10-22T14:17:56.238Z,1.95
2022-10-22T14:20:28.125Z,2.30
2022-10-22T14:22:55.353Z,2.97
2022-10-22T14:25:24.818Z,2.40
2022-10-22T14:27:51.594Z,2.65
2022-10-22T14:30:26.945Z,2.25
2022-10-22T14:32:53.592Z,1.45
2022-10-22T14:35:22.552Z,2.15
2022-10-22T14:37:49.692Z,2.42
2022-10-22T14:40:18.943Z,2.28
2022-10-22T14:42:47.344Z,2.20
2022-10-22T14:45:21.252Z,2.72
2022-10-22T14:47:48.767Z,2.20
2022-10-22T14:50:15.731Z,1.92
2022-10-22T14:52:43.590Z,1.95
2022-10-22T14:55:11.677Z,3.33
2022-10-22T14:57:42.120Z,2.63
2022-10-22T15:00:12.013Z,2.42
2022-10-22T15:02:38.889Z,2.80
2022-10-22T15:05:06.536Z,3.00
2022-10-22T15:07:33.152Z,2.92
2022-10-22T15:10:00.008Z,2.42
2022-10-22T15:12:26.957Z,2.60
2022-10-22T15:14:53.597Z,2.40
2022-10-22T15:17:20.235Z,3.10
2022-10-22T15:19:47.013Z,3.35
2022-10-22T15:22:14.142Z,2.00
2022-10-22T15:24:44.557Z,3.35
2022-10-22T15:27:13.733Z,3.10
2022-10-22T15:29:41.260Z,2.95
2022-10-22T15:32:10.383Z,3.50
2022-10-22T15:34:38.664Z,3.05
2022-10-22T15:37:07.943Z,2.72
2022-10-22T15:39:34.691Z,2.75
2022-10-22T15:42:01.455Z,2.40
2022-10-22T15:44:31.036Z,2.88
2022-10-22T15:46:59.102Z,3.53
2022-10-22T15:49:27.841Z,2.30
2022-10-22T15:51:55.503Z,3.22
2022-10-22T15:54:25.784Z,2.92
2022-10-22T15:56:52.451Z,4.07
2022-10-22T15:59:19.095Z,3.83
2022-10-22T16:01:45.707Z,3.97
2022-10-22T16:04:12.306Z,3.35
2022-10-22T16:06:44.970Z,3.22
2022-10-22T16:09:16.862Z,3.35
2022-10-22T16:11:43.933Z,2.60
2022-10-22T16:14:12.596Z,2.72
2022-10-22T16:16:43.953Z,2.80
2022-10-22T16:19:15.859Z,2.55
2022-10-22T16:21:43.189Z,2.95
2022-10-22T16:24:10.776Z,3.00
2022-10-22T16:26:37.679Z,2.65
2022-10-22T16:29:05.056Z,2.63
2022-10-22T16:31:31.837Z,2.83
2022-10-22T16:33:59.927Z,3.22
2022-10-22T16:36:26.553Z,2.50
2022-10-22T16:38:53.284Z,3.00
2022-10-22T16:41:25.318Z,2.80
2022-10-22T16:43:55.116Z,3.17
2022-10-22T16:46:23.329Z,2.63
2022-10-22T16:48:52.536Z,3.00
2022-10-22T16:51:21.752Z,3.53
2022-10-22T16:53:48.846Z,2.90
2022-10-22T16:56:17.090Z,3.35
2022-10-22T16:58:46.849Z,3.03
2022-10-22T17:01:17.812Z,2.85
2022-10-22T17:03:45.116Z,3.15
2022-10-22T17:06:11.919Z,3.42
2022-10-22T17:08:39.776Z,3.53
2022-10-22T17:11:18.117Z,3.30
2022-10-22T17:13:46.791Z,3.83
2022-10-22T17:16:15.566Z,3.17
2022-10-22T17:18:43.873Z,3.10
2022-10-22T17:21:11.967Z,3.72
2022-10-22T17:23:38.821Z,3.55
2022-10-22T17:26:07.931Z,3.10
2022-10-22T17:28:38.977Z,3.13
2022-10-22T17:31:08.377Z,3.08
2022-10-22T17:33:36.203Z,2.90
2022-10-22T17:36:12.671Z,2.80
2022-10-22T17:38:40.476Z,3.85
2022-10-22T17:41:11.342Z,2.67
2022-10-22T17:43:40.627Z,3.10
2022-10-22T17:46:10.724Z,3.42
2022-10-22T17:48:37.330Z,2.80
2022-10-22T17:51:07.948Z,3.35
2022-10-22T17:53:34.738Z,2.92
2022-10-22T17:56:02.693Z,2.90
2022-10-22T17:58:30.738Z,2.85
2022-10-22T18:00:58.678Z,2.47
2022-10-22T18:03:27.734Z,2.90
2022-10-22T18:05:54.833Z,3.17
2022-10-22T18:08:24.034Z,2.50
2022-10-22T18:10:50.637Z,3.08
2022-10-22T18:13:17.719Z,3.28
2022-10-22T18:15:47.185Z,3.03
2022-10-22T18:18:13.873Z,3.50
2022-10-22T18:20:40.564Z,3.97
2022-10-22T18:23:07.489Z,4.07
2022-10-22T18:25:38.858Z,4.30
2022-10-22T18:28:05.443Z,3.42
2022-10-22T18:30:32.310Z,3.47
2022-10-22T18:32:58.927Z,3.28
2022-10-22T18:35:25.576Z,3.53
2022-10-22T18:37:52.191Z,4.50
2022-10-22T18:40:18.791Z,3.22
2022-10-22T18:42:45.663Z,3.80
2022-10-22T18:45:12.768Z,3.40
2022-10-22T18:47:42.705Z,3.55
2022-10-22T18:50:09.727Z,3.33
2022-10-22T18:52:36.420Z,3.28
2022-10-22T18:55:03.692Z,4.00
2022-10-22T18:57:30.524Z,4.85
2022-10-22T18:59:59.502Z,3.65
2022-10-22T19:02:26.901Z,3.78
2022-10-22T19:04:53.677Z,3.88
2022-10-22T19:07:20.274Z,4.57
2022-10-22T19:09:46.938Z,3.85
2022-10-22T19:12:15.185Z,4.28
2022-10-22T19:14:42.610Z,5.32
2022-10-22T19:17:09.316Z,4.05
2022-10-22T19:19:35.908Z,4.18
2022-10-22T19:22:02.521Z,4.45
2022-10-22T19:24:29.203Z,4.53
2022-10-22T19:26:55.794Z,4.88
2022-10-22T19:29:22.493Z,4.38
2022-10-22T19:31:50.968Z,4.57
2022-10-22T19:34:18.380Z,4.38
2022-10-22T19:36:44.974Z,4.93
2022-10-22T19:39:15.249Z,5.25
2022-10-22T19:41:42.033Z,4.57
2022-10-22T19:44:09.688Z,5.10
2022-10-22T19:46:37.007Z,4.93
2022-10-22T19:49:04.844Z,4.93
2022-10-22T19:51:33.709Z,4.63
2022-10-22T19:54:02.853Z,5.65
2022-10-22T19:56:30.450Z,5.20
2022-10-22T19:58:57.471Z,4.57
2022-10-22T20:01:24.800Z,5.05
2022-10-22T20:03:52.311Z,6.35
2022-10-22T20:06:19.724Z,4.88
2022-10-22T20:08:46.802Z,5.43
2022-10-22T20:11:22.411Z,5.15
2022-10-22T20:13:52.186Z,5.00
2022-10-22T20:16:23.127Z,5.65
2022-10-22T20:18:50.724Z,6.20
2022-10-22T20:21:19.285Z,5.40
2022-10-22T20:23:47.147Z,5.55
2022-10-22T20:26:13.815Z,5.30
2022-10-22T20:28:40.463Z,5.82
2022-10-22T20:31:12.192Z,5.68
2022-10-22T20:33:38.932Z,5.50
2022-10-22T20:36:09.294Z,5.38
2022-10-22T20:41:07.322Z,5.55
2022-10-22T20:43:34.308Z,6.05
2022-10-22T20:46:01.381Z,6.18
2022-10-22T20:48:31.161Z,6.65
2022-10-22T20:50:59.536Z,5.72
2022-10-22T20:53:26.870Z,5.40
2022-10-22T20:55:57.580Z,6.88
2022-10-22T20:58:26.728Z,5.80
2022-10-22T21:00:54.636Z,7.72
2022-10-22T21:03:21.326Z,6.63
2022-10-22T21:05:47.957Z,6.65
2022-10-22T21:08:17.429Z,5.93
2022-10-22T21:10:48.893Z,6.80
2022-10-22T21:13:16.568Z,5.97
2022-10-22T21:15:43.145Z,6.70
2022-10-22T21:18:09.734Z,6.65
2022-10-22T21:20:38.223Z,6.10
2022-10-22T21:23:04.890Z,7.35
2022-10-22T21:25:31.668Z,6.55
2022-10-22T21:27:59.316Z,6.95
2022-10-22T21:30:25.945Z,6.30
2022-10-22T21:32:52.571Z,6.70
2022-10-22T21:35:19.207Z,7.03
2022-10-22T21:37:45.846Z,6.50
2022-10-22T21:40:12.647Z,6.60
2022-10-22T21:42:39.234Z,6.85
2022-10-22T21:45:10.454Z,6.75
2022-10-22T21:47:40.049Z,7.83
2022-10-22T21:50:07.169Z,6.53
2022-10-22T21:52:33.765Z,6.35
2022-10-22T21:55:00.327Z,6.45
2022-10-22T21:57:27.136Z,6.40
2022-10-22T21:59:53.707Z,6.80
2022-10-22T22:04:47.927Z,7.22
2022-10-22T22:07:14.485Z,7.90
2022-10-22T22:09:41.164Z,7.60
2022-10-22T22:12:08.960Z,7.85
2022-10-22T22:14:36.034Z,8.05
2022-10-22T22:17:02.637Z,7.10
2022-10-22T22:19:29.193Z,7.35
2022-10-22T22:21:55.754Z,7.75
2022-10-22T22:24:22.918Z,6.88
2022-10-22T22:26:49.536Z,7.63
2022-10-22T22:29:16.281Z,8.85
2022-10-22T22:31:43.471Z,8.20
2022-10-22T22:34:19.415Z,7.72
2022-10-22T22:36:47.235Z,7.60
2022-10-22T22:39:22.482Z,8.02
2022-10-22T22:41:49.566Z,7.65
2022-10-22T22:44:16.579Z,7.40
2022-10-22T22:46:43.511Z,8.88
2022-10-22T22:49:10.207Z,8.93
2022-10-22T22:51:38.794Z,9.68
2022-10-22T22:54:05.388Z,8.70
2022-10-22T22:56:34.161Z,8.60
2022-10-22T22:59:01.263Z,9.18
2022-10-22T23:01:30.212Z,8.85
2022-10-22T23:04:02.639Z,8.00
2022-10-22T23:06:32.535Z,9.32
2022-10-22T23:09:00.388Z,8.43
2022-10-22T23:11:27.725Z,8.43
2022-10-22T23:13:57.662Z,8.15
2022-10-22T23:16:26.547Z,8.00
2022-10-22T23:18:55.432Z,8.07
2022-10-22T23:21:30.692Z,8.55
2022-10-22T23:24:00.363Z,8.45
2022-10-22T23:26:32.471Z,9.10
2022-10-22T23:29:30.301Z,9.18
2022-10-22T23:32:01.259Z,8.25
2022-10-22T23:34:29.149Z,8.27
2022-10-22T23:36:56.423Z,8.45
2022-10-22T23:39:25.648Z,7.82
2022-10-22T23:41:53.131Z,7.57
2022-10-22T23:44:21.257Z,8.15
2022-10-22T23:46:47.959Z,8.32
2022-10-22T23:49:16.331Z,7.90
2022-10-22T23:51:43.049Z,8.00
2022-10-22T23:54:15.632Z,9.55
2022-10-22T23:56:42.734Z,8.50
2022-10-22T23:59:09.939Z,7.97
